Main page
METAR-TAF:

METAR-TAF

Airports :

Herat, Afghanistan

Herat International Airport

latitude: 34-13N, longitude: 062-13E, elevation: 964 m

Current weather observation

The report was made 3 hours and 27 minutes ago, at 16:55 UTC
Calm wind
Temperature 7°C
Humidity 33%
Pressure 1026 hPa
Visibility 10 km or more
Few clouds at a height of 8000 ft

METAR: OAHR 181655Z 00000KT 9999 FEW080 07/M08 Q1026 RMK BLU

Time: 00:52 (20:22 UTC)

Forecast

The report was made 3 hours and 22 minutes ago, at 17:00 UTC
Forecast valid from 18 at 18 UTC to 19 at 18 UTC
Wind 3 kt from variable directions
Visibility 10 km or more
Scattered clouds at a height of 8000 ft
Becoming
from 19 at 03 UTC to 19 at 05 UTC
Wind 5 kt from the West
Visibility 10 km or more
no clouds below 1500 m and no cumulonimbus

TAF: OAHR 181700Z 1818/1918 VRB03KT 9999 SCT080 BECMG 1903/1905 28005KT CAVOK

Weather observations and forecasts of more than 4000 airports (METAR and TAF reports).

The available stations are represented by yellow and red dots on the map.

Hover mouse over dot to see the name of the station.

Then click to see weather observations and forecasts.

To change the map : click on the green buttons with a black cross to zoom in, on the green button with a dash to zoom out, or on the green arrows for adjacent maps.


METAR-TAF: